Aérodrome :
LOGIN :

S'inscrire | Disclaimer

   EN    FR    IT 

 










Légende :    VFR   VFR Marginal   IFR   IFR Intensif   IFR Très Intensif
Visi : 
Plafond : 
>= 8 km
>= 3000ft
5 à 8 km
1000 à 3000 ft
1500m à 5 km
500 à 1000 ft
800 à 1500m
200 à 500 ft
< 800m
< 200 ft
Symboles :   Orages  Brouillard  Fortes neiges  Fortes précipitations  Vent > 20 kt
SIGMETs :   Divers  Orages  Givrage  Turbulence  Onde Orograph.  Cendres Volcan.






- Altitude de l'aérodrome : 20 ft
- Code IATA : BJA


DAAE - Soummam - Bejaia

DERNIER METAR :
  • 271200Z 23004KT 8000 FEW010 SCT020 FEW026CB BKN040 18/15 Q1012

METARs EXPIRÉS :
  • 271100Z 22005KT 7000 -RA FEW016 SCT020 FEW026CB BKN040 17/13 Q1012
  • 271000Z 30014G28KT 8000 -RA FEW023 FEW026CB BKN040 19/14 Q1010
  • 270900Z 27016G26KT 9999 FEW023 FEW026CB SCT043 24/08 Q1008

TAF TAF DAAE
Valide du 27 à 12h jusqu'au 28 à 12h UTC


271100Z 2712/2812 30018KT 8000 -RA SCT016 BKN030
TEMPO 2712/2724 32025G40KT 3000 SHRA FEW020CB
BECMG 2722/2724 04008KT



MET'MAP, la Météo Aéronautique d'un coup d'oeil ! - Copyright ORBIFLY Décembre 2007 - Disclaimer

ORBIFLY MET'MAP TEAM :

Programmation & Développement : Alexandra Zaïnal
Sur une idée originale de : Baudouin d'Aumeries
Assistance à la programmation : Marc-Olivier Méhu
Soutien technique & logistique : Manuel Goepfert

Contact : metmap@orbifly.com




SOURCES & CREDITS :

   NOAA